Time;durP1;ratioP1;P1;durP2;ratioP2;P2;SDS_P1;SDS_P2;PMS_P1;PMS_P2;Temp;Humidity;BMP_temperature;BMP_pressure;BME280_temperature;BME280_humidity;BME280_pressure;Samples;Min_cycle;Max_cycle;Signal;HPM_P1;HPM_P2
2021/08/26 00:07:04;;;;;;;7.63;2.28;;;15.10;99.90;;;15.71;100.00;100403.31;5070715;28;20290;-75
2021/08/26 00:09:32;;;;;;;8.30;2.40;;;15.10;99.90;;;15.69;100.00;100392.03;5064672;28;20215;-75
2021/08/26 00:11:59;;;;;;;8.93;2.45;;;15.10;99.90;;;15.71;100.00;100392.78;5073799;28;20226;-75
2021/08/26 00:14:25;;;;;;;13.98;2.92;;;15.10;99.90;;;15.71;100.00;100398.03;5079551;28;20196;-75
2021/08/26 00:16:52;;;;;;;9.02;2.55;;;15.10;99.90;;;15.72;100.00;100397.97;5063469;28;20191;-75
2021/08/26 00:19:20;;;;;;;9.05;2.53;;;15.10;99.90;;;15.72;100.00;100405.03;5083016;28;20231;-75
2021/08/26 00:21:47;;;;;;;9.05;2.70;;;15.10;99.90;;;15.73;100.00;100406.72;5080909;28;20698;-73
2021/08/26 00:24:14;;;;;;;7.38;2.53;;;15.10;99.90;;;15.74;100.00;100400.50;5073925;28;20195;-74
2021/08/26 00:26:42;;;;;;;10.48;2.58;;;15.10;99.90;;;15.74;100.00;100395.25;5081713;28;20199;-75
2021/08/26 00:29:09;;;;;;;8.52;2.40;;;15.10;99.90;;;15.74;100.00;100395.25;5075857;28;20215;-75
2021/08/26 00:31:36;;;;;;;14.55;3.13;;;15.10;99.90;;;15.75;100.00;100396.91;5088509;28;20188;-75
2021/08/26 00:34:02;;;;;;;11.02;2.30;;;15.10;99.90;;;15.74;100.00;100397.88;5078018;28;20677;-74
2021/08/26 00:36:29;;;;;;;9.63;2.63;;;15.10;99.90;;;15.74;100.00;100396.06;5069927;28;20600;-76
2021/08/26 00:38:56;;;;;;;10.30;2.58;;;15.10;99.90;;;15.75;100.00;100386.38;5071172;28;20204;-76
2021/08/26 00:41:25;;;;;;;8.60;2.40;;;15.10;99.90;;;15.74;100.00;100380.22;5054839;28;20196;-75
2021/08/26 00:43:53;;;;;;;9.88;3.05;;;15.10;99.90;;;15.74;100.00;100377.59;5058539;28;20192;-75
2021/08/26 00:46:20;;;;;;;10.05;2.70;;;15.10;99.90;;;15.76;99.96;100372.22;5088182;28;20717;-75
2021/08/26 00:48:49;;;;;;;11.65;3.03;;;15.10;99.90;;;15.76;99.74;100372.22;5080426;28;20612;-75
2021/08/26 00:51:16;;;;;;;8.20;2.70;;;15.10;99.90;;;15.74;99.63;100361.75;5070826;28;20199;-76
2021/08/26 00:53:44;;;;;;;14.77;3.10;;;15.10;99.90;;;15.74;99.67;100363.56;5085044;28;20191;-74
2021/08/26 00:56:14;;;;;;;8.80;2.60;;;15.10;99.90;;;15.74;99.70;100361.75;5075353;28;20188;-76
2021/08/26 00:58:42;;;;;;;10.45;2.60;;;15.10;99.90;;;15.74;99.60;100361.75;5067942;28;20195;-75
2021/08/26 01:01:12;;;;;;;12.85;3.35;;;15.10;99.90;;;15.74;99.79;100353.03;5070994;28;20212;-75
2021/08/26 01:03:48;;;;;;;10.57;2.63;;;15.10;99.90;;;15.72;99.30;100353.13;5081782;28;20212;-76
2021/08/26 01:06:24;;;;;;;10.13;3.03;;;15.10;99.90;;;15.68;99.06;100351.63;5073088;28;20260;-75
2021/08/26 01:09:02;;;;;;;11.10;2.72;;;15.10;99.90;;;15.70;99.08;100356.78;5062821;28;20211;-77
2021/08/26 01:11:31;;;;;;;13.73;3.20;;;15.10;99.90;;;15.68;99.25;100351.63;5071564;28;20192;-75
2021/08/26 01:14:02;;;;;;;10.27;3.10;;;15.10;99.90;;;15.69;99.08;100349.84;5082054;28;20683;-76
2021/08/26 01:16:30;;;;;;;11.68;3.20;;;15.10;99.90;;;15.69;99.01;100340.09;5073485;28;20674;-74
2021/08/26 01:18:56;;;;;;;12.40;2.70;;;15.10;99.90;;;15.70;99.07;100351.50;5082837;28;20207;-76
2021/08/26 01:21:25;;;;;;;12.55;2.75;;;15.10;99.90;;;15.70;99.13;100354.16;5077693;28;20196;-76
2021/08/26 01:23:58;;;;;;;10.50;3.20;;;15.10;99.90;;;15.67;98.96;100344.66;5060265;28;20294;-75
2021/08/26 01:26:33;;;;;;;12.25;2.72;;;15.10;99.90;;;15.67;98.91;100347.28;5065086;28;20199;-76
2021/08/26 01:29:02;;;;;;;10.98;2.70;;;15.10;99.90;;;15.66;98.86;100350.84;5069142;28;20272;-75
2021/08/26 01:31:30;;;;;;;9.32;2.70;;;15.10;99.90;;;15.68;98.83;100350.75;5066944;28;20195;-74
2021/08/26 01:33:59;;;;;;;13.30;3.15;;;15.10;99.90;;;15.69;98.57;100347.19;5070187;28;20222;-75
2021/08/26 01:36:27;;;;;;;11.73;3.05;;;15.10;99.90;;;15.69;98.44;100344.56;5065581;28;20254;-75
2021/08/26 01:39:00;;;;;;;11.60;3.03;;;15.00;99.90;;;15.67;98.57;100349.06;5054518;28;20212;-74
2021/08/26 01:41:45;;;;;;;11.50;3.08;;;15.00;99.90;;;15.66;98.51;100347.38;5070175;28;20203;-75
2021/08/26 01:44:14;;;;;;;11.32;2.90;;;15.00;99.90;;;15.65;98.39;100340.41;5073982;28;20187;-75
2021/08/26 01:46:41;;;;;;;13.77;3.20;;;15.00;99.90;;;15.64;98.25;100346.66;5077824;28;20656;-75
2021/08/26 01:49:08;;;;;;;11.52;3.38;;;15.00;99.90;;;15.64;98.44;100347.47;5074493;28;20692;-75
2021/08/26 01:51:35;;;;;;;11.63;3.08;;;15.00;99.90;;;15.63;98.46;100345.78;5074643;28;20250;-75
2021/08/26 01:54:02;;;;;;;11.23;3.08;;;15.00;99.90;;;15.63;98.20;100343.16;5056006;28;20580;-75
2021/08/26 01:56:29;;;;;;;12.82;3.30;;;15.00;99.90;;;15.62;97.86;100337.97;5077940;28;20189;-75
2021/08/26 01:58:57;;;;;;;10.98;3.20;;;15.00;99.90;;;15.60;97.90;100345.13;5079406;28;20620;-73
2021/08/26 02:01:24;;;;;;;13.57;3.60;;;15.00;99.90;;;15.59;97.62;100348.72;5072688;28;20212;-74
2021/08/26 02:03:50;;;;;;;11.52;3.40;;;15.00;99.90;;;15.59;97.83;100338.19;5064069;28;20692;-73
2021/08/26 02:06:17;;;;;;;11.82;3.22;;;15.00;99.90;;;15.56;97.46;100340.97;5065039;28;20191;-75
2021/08/26 02:08:44;;;;;;;13.35;3.42;;;15.00;99.90;;;15.55;97.61;100336.66;5083110;28;20262;-72
2021/08/26 02:11:11;;;;;;;13.80;3.80;;;14.90;99.90;;;15.56;97.47;100338.34;5079173;28;20195;-74
2021/08/26 02:13:38;;;;;;;12.93;3.22;;;14.90;99.90;;;15.57;97.41;100327.72;5088241;28;20542;-73
2021/08/26 02:16:07;;;;;;;12.27;3.38;;;14.90;99.90;;;15.59;97.52;100328.44;5069258;28;20255;-74
2021/08/26 02:18:34;;;;;;;11.98;3.55;;;15.00;99.90;;;15.60;97.29;100326.66;5078759;28;20564;-76
2021/08/26 02:21:01;;;;;;;17.58;3.63;;;15.00;99.90;;;15.58;97.14;100325.91;5080406;28;20199;-78
2021/08/26 02:23:27;;;;;;;13.05;3.35;;;14.90;99.90;;;15.57;97.21;100324.22;5069644;28;20220;-76
2021/08/26 02:25:54;;;;;;;11.98;3.72;;;14.90;99.90;;;15.56;97.00;100322.53;5079400;28;20241;-76
2021/08/26 02:28:21;;;;;;;17.17;3.40;;;14.90;99.90;;;15.55;97.15;100326.13;5064957;28;20199;-76
2021/08/26 02:30:48;;;;;;;10.65;3.05;;;14.90;99.90;;;15.52;96.67;100326.31;5067582;28;20704;-76
2021/08/26 02:33:16;;;;;;;13.68;3.90;;;14.90;99.90;;;15.51;96.84;100319.34;5076048;28;20594;-75
2021/08/26 02:35:42;;;;;;;14.50;3.40;;;14.90;99.90;;;15.51;96.87;100327.25;5072235;28;20192;-75
2021/08/26 02:38:09;;;;;;;12.57;3.28;;;14.90;99.90;;;15.51;96.80;100324.59;5056359;28;20192;-73
2021/08/26 02:40:36;;;;;;;13.27;3.40;;;14.90;99.90;;;15.49;96.64;100321.25;5082723;28;20195;-76
2021/08/26 02:43:03;;;;;;;18.55;3.42;;;14.90;99.90;;;15.48;96.45;100320.38;5062440;28;20573;-73
2021/08/26 02:45:31;;;;;;;12.70;3.45;;;14.90;99.90;;;15.49;96.39;100323.88;5066757;28;20206;-75
2021/08/26 02:47:57;;;;;;;15.38;3.50;;;14.80;99.90;;;15.48;96.77;100319.53;5060340;28;20191;-76
2021/08/26 02:50:26;;;;;;;14.27;3.40;;;14.90;99.90;;;15.47;96.33;100312.59;5055557;28;20211;-74
2021/08/26 02:52:52;;;;;;;10.48;3.45;;;14.80;99.90;;;15.47;96.46;100315.22;5069290;28;20183;-75
2021/08/26 02:55:19;;;;;;;17.00;3.40;;;14.80;99.90;;;15.46;96.55;100313.50;5069369;28;20856;-75
2021/08/26 02:57:46;;;;;;;15.20;3.67;;;14.80;99.90;;;15.44;96.38;100313.59;5065396;28;20188;-77
2021/08/26 03:00:14;;;;;;;14.13;3.60;;;14.80;99.90;;;15.43;96.22;100313.72;5074015;28;20215;-77
2021/08/26 03:02:40;;;;;;;19.27;3.95;;;14.80;99.90;;;15.42;96.25;100320.78;5069173;28;20686;-77
2021/08/26 03:05:08;;;;;;;14.48;4.03;;;14.80;99.90;;;15.39;96.41;100318.31;5055362;28;20196;-76
2021/08/26 03:07:36;;;;;;;16.83;3.58;;;14.80;99.90;;;15.36;96.17;100328.19;5075681;28;20185;-75
2021/08/26 03:10:05;;;;;;;12.32;3.88;;;14.80;99.90;;;15.33;96.16;100331.03;5070437;28;20211;-75
2021/08/26 03:12:32;;;;;;;17.15;3.50;;;14.70;99.90;;;15.30;96.19;100325.94;5080656;28;20188;-76
2021/08/26 03:14:59;;;;;;;14.98;3.63;;;14.70;99.90;;;15.29;96.24;100330.38;5072657;28;20653;-76
2021/08/26 03:17:26;;;;;;;11.00;3.50;;;14.70;99.90;;;15.28;96.53;100333.09;5069243;28;20196;-75
2021/08/26 03:19:53;;;;;;;16.50;3.80;;;14.70;99.90;;;15.27;96.38;100323.50;5066518;28;20215;-77
2021/08/26 03:22:20;;;;;;;15.68;4.28;;;14.70;99.90;;;15.25;96.11;100323.63;5067636;28;20607;-73
2021/08/26 03:24:48;;;;;;;15.05;3.97;;;14.60;99.90;;;15.26;96.40;100321.81;5078855;28;20651;-75
2021/08/26 03:27:15;;;;;;;16.17;4.30;;;14.60;99.90;;;15.24;96.05;100316.63;5066776;28;20198;-76
2021/08/26 03:29:43;;;;;;;13.57;3.72;;;14.60;99.90;;;15.23;96.26;100314.09;5066151;28;20212;-76
2021/08/26 03:32:10;;;;;;;18.38;4.07;;;14.60;99.90;;;15.20;96.08;100320.41;5077813;28;20268;-76
2021/08/26 03:34:36;;;;;;;16.00;4.25;;;14.60;99.90;;;15.22;96.16;100322.97;5075220;28;20674;-75
2021/08/26 03:37:03;;;;;;;16.70;3.92;;;14.60;99.90;;;15.24;96.12;100323.72;5069447;28;20195;-74
2021/08/26 03:39:30;;;;;;;16.70;4.55;;;14.60;99.90;;;15.24;95.98;100321.91;5069755;28;20207;-75
2021/08/26 03:41:58;;;;;;;16.38;4.15;;;14.60;99.90;;;15.23;95.98;100325.50;5063626;28;20299;-75
2021/08/26 03:44:25;;;;;;;17.65;4.30;;;14.60;99.90;;;15.21;95.86;100315.97;5063286;28;20204;-74
2021/08/26 03:46:52;;;;;;;13.90;4.05;;;14.60;99.90;;;15.23;95.96;100328.13;5069038;28;20664;-75
2021/08/26 03:49:19;;;;;;;18.23;4.82;;;14.60;99.90;;;15.22;95.68;100328.22;5083680;28;21010;-76
2021/08/26 03:51:46;;;;;;;17.92;4.53;;;14.60;99.90;;;15.21;96.10;100326.53;5081031;28;20192;-75
2021/08/26 03:54:13;;;;;;;19.33;4.45;;;14.60;99.90;;;15.22;96.03;100333.50;5081846;28;20202;-74
2021/08/26 03:56:40;;;;;;;12.98;4.40;;;14.60;99.90;;;15.22;95.96;100325.59;5065196;28;20709;-75
2021/08/26 03:59:08;;;;;;;16.70;4.40;;;14.60;99.90;;;15.21;95.72;100326.53;5081990;28;20593;-73
2021/08/26 04:01:35;;;;;;;18.35;3.88;;;14.60;99.90;;;15.21;95.76;100337.06;5060225;28;20196;-75
2021/08/26 04:04:02;;;;;;;20.80;4.68;;;14.60;99.90;;;15.21;95.99;100329.16;5061621;28;20204;-75
2021/08/26 04:06:29;;;;;;;16.50;4.72;;;14.60;99.90;;;15.23;95.89;100325.50;5077578;28;20209;-75
2021/08/26 04:08:55;;;;;;;17.52;6.38;;;14.60;99.90;;;15.24;95.78;100327.19;5075194;28;20210;-74
2021/08/26 04:11:22;;;;;;;24.63;6.40;;;14.60;99.90;;;15.24;95.97;100318.44;5068247;28;20195;-75
2021/08/26 04:13:49;;;;;;;16.33;4.80;;;14.60;99.90;;;15.24;95.76;100321.06;5082042;28;20249;-75
2021/08/26 04:16:17;;;;;;;16.08;4.38;;;14.60;99.90;;;15.26;95.70;100319.16;5090808;28;20195;-75
2021/08/26 04:18:44;;;;;;;22.50;5.10;;;14.60;99.90;;;15.26;95.86;100324.44;5076365;28;20192;-75
2021/08/26 04:21:11;;;;;;;16.55;4.70;;;14.60;99.90;;;15.27;95.69;100323.50;5062847;28;20570;-76
2021/08/26 04:23:38;;;;;;;17.27;4.25;;;14.60;99.90;;;15.25;95.70;100315.72;5086547;28;20212;-76
2021/08/26 04:26:04;;;;;;;16.95;4.35;;;14.60;99.90;;;15.27;95.74;100316.44;5060199;28;20246;-74
2021/08/26 04:28:32;;;;;;;20.58;4.82;;;14.60;99.90;;;15.27;95.85;100320.88;5073907;28;20682;-77
2021/08/26 04:30:59;;;;;;;19.25;4.70;;;14.60;99.90;;;15.25;95.80;100325.41;5063215;28;20249;-74
2021/08/26 04:33:28;;;;;;;15.82;4.97;;;14.60;99.90;;;15.24;95.91;100321.91;5057947;28;20265;-75
2021/08/26 04:35:55;;;;;;;20.88;5.05;;;14.60;99.90;;;15.25;95.79;100320.13;5072866;28;20199;-76
2021/08/26 04:38:21;;;;;;;20.10;5.03;;;14.60;99.90;;;15.25;95.73;100322.75;5067975;28;20191;-75
2021/08/26 04:40:50;;;;;;;19.23;4.97;;;14.60;99.90;;;15.26;95.84;100320.03;5073832;28;20298;-76
2021/08/26 04:43:17;;;;;;;17.13;5.75;;;14.60;99.90;;;15.27;95.70;100324.34;5071207;28;20211;-74
2021/08/26 04:45:44;;;;;;;17.30;5.30;;;14.60;99.90;;;15.28;95.85;100312.88;5079983;28;20191;-74
2021/08/26 04:48:11;;;;;;;16.98;4.55;;;14.60;99.90;;;15.30;95.91;100310.13;5100472;28;20187;-75
2021/08/26 04:50:39;;;;;;;20.02;4.85;;;14.60;99.90;;;15.30;95.72;100303.06;5083378;28;20207;-74
2021/08/26 04:53:06;;;;;;;22.23;5.75;;;14.60;99.90;;;15.30;95.96;100310.13;5087165;28;20263;-75
2021/08/26 04:55:33;;;;;;;18.88;5.45;;;14.60;99.90;;;15.31;95.77;100298.63;5081877;28;20191;-76
2021/08/26 04:58:00;;;;;;;20.70;5.53;;;14.60;99.90;;;15.29;95.86;100297.91;5068257;28;20196;-75
2021/08/26 05:00:32;;;;;;;16.25;5.35;;;14.60;99.90;;;15.30;95.96;100296.94;5067616;28;20232;-73
2021/08/26 05:03:06;;;;;;;19.30;5.03;;;14.70;99.90;;;15.32;95.68;100292.44;5097739;28;20226;-74
2021/08/26 05:05:34;;;;;;;15.32;4.57;;;14.70;99.90;;;15.31;95.83;100301.25;5087543;28;20206;-74
2021/08/26 05:08:04;;;;;;;20.05;5.18;;;14.70;99.90;;;15.33;95.87;100296.75;5084192;28;20659;-74
2021/08/26 05:10:30;;;;;;;19.02;4.97;;;14.70;99.90;;;15.32;95.72;100298.53;5084693;28;20212;-74
2021/08/26 05:12:57;;;;;;;20.15;5.55;;;14.80;99.90;;;15.33;95.80;100309.94;5059273;28;20196;-76
2021/08/26 05:15:28;;;;;;;21.75;5.95;;;14.70;99.90;;;15.31;95.78;100307.41;5076413;28;20206;-75
2021/08/26 05:17:56;;;;;;;20.38;5.90;;;14.70;99.90;;;15.33;95.80;100297.59;5081754;28;20218;-76
2021/08/26 05:20:24;;;;;;;14.77;5.10;;;14.80;99.90;;;15.37;95.75;100299.06;5088652;28;20208;-75
2021/08/26 05:22:51;;;;;;;21.67;5.68;;;14.80;99.90;;;15.40;95.59;100306.00;5074392;28;20648;-76
2021/08/26 05:25:21;;;;;;;24.25;6.03;;;14.80;99.90;;;15.43;95.70;100305.78;5067494;28;20191;-75
2021/08/26 05:27:49;;;;;;;20.23;6.10;;;14.80;99.90;;;15.44;95.54;100302.22;5065251;28;20203;-74
2021/08/26 05:30:18;;;;;;;23.38;5.90;;;14.90;99.90;;;15.44;95.57;100305.69;5080212;28;20307;-75
2021/08/26 05:32:45;;;;;;;18.77;5.50;;;14.90;99.90;;;15.46;95.48;100314.34;5069014;28;20242;-73
2021/08/26 05:35:12;;;;;;;23.02;5.53;;;14.90;99.90;;;15.46;95.35;100317.00;5078816;28;20726;-75
2021/08/26 05:37:39;;;;;;;14.48;4.80;;;14.90;99.90;;;15.46;95.23;100321.41;5060402;28;20263;-76
2021/08/26 05:40:07;;;;;;;18.15;5.00;;;14.90;99.90;;;15.47;95.43;100337.19;5086998;28;20261;-77
2021/08/26 05:42:36;;;;;;;17.42;5.57;;;14.90;99.90;;;15.48;95.07;100335.34;5082120;28;20183;-76
2021/08/26 05:45:06;;;;;;;20.50;5.40;;;14.90;99.90;;;15.49;95.20;100326.53;5074425;28;20200;-76
2021/08/26 05:47:35;;;;;;;20.15;5.20;;;14.90;99.90;;;15.48;95.19;100328.31;5081591;28;20199;-74
2021/08/26 05:50:02;;;;;;;18.27;5.15;;;14.90;99.90;;;15.48;95.12;100325.66;5072491;28;20246;-75
2021/08/26 05:52:30;;;;;;;24.60;5.78;;;14.90;99.90;;;15.50;95.26;100328.19;5068956;28;20203;-75
2021/08/26 05:55:01;;;;;;;18.60;4.97;;;14.90;99.90;;;15.50;95.17;100328.19;5082375;28;20196;-75
2021/08/26 05:57:28;;;;;;;16.38;4.40;;;15.00;99.90;;;15.50;95.29;100331.69;5086164;28;20208;-75
2021/08/26 06:00:00;;;;;;;18.48;5.13;;;15.00;99.90;;;15.51;94.83;100332.53;5070488;28;20698;-74
2021/08/26 06:02:26;;;;;;;21.50;4.90;;;15.00;99.90;;;15.51;94.79;100322.81;5092257;28;20199;-76
2021/08/26 06:04:54;;;;;;;22.35;5.43;;;15.00;99.90;;;15.53;94.71;100323.56;5087128;28;20199;-75
2021/08/26 06:07:21;;;;;;;15.07;5.03;;;15.00;99.90;;;15.57;94.75;100326.88;5081619;28;20171;-76
2021/08/26 06:09:49;;;;;;;20.23;5.20;;;15.00;99.90;;;15.59;94.84;100332.91;5083966;28;20204;-76
2021/08/26 06:12:15;;;;;;;15.63;4.90;;;15.00;99.90;;;15.62;94.71;100337.97;5093803;28;20175;-76
2021/08/26 06:14:46;;;;;;;21.63;5.65;;;15.10;99.90;;;15.63;94.75;100342.28;5094357;28;20167;-73
2021/08/26 06:17:18;;;;;;;19.10;5.10;;;15.10;99.90;;;15.63;94.73;100344.94;5090939;28;20211;-75
2021/08/26 06:19:45;;;;;;;20.42;5.35;;;15.10;99.90;;;15.62;94.48;100343.25;5117525;28;20221;-75
2021/08/26 06:22:16;;;;;;;20.33;5.03;;;15.10;99.90;;;15.61;94.82;100346.81;5116983;28;20175;-75
2021/08/26 06:24:43;;;;;;;22.05;5.80;;;15.10;99.90;;;15.63;94.82;100350.22;5090612;28;20242;-75
2021/08/26 06:27:09;;;;;;;21.23;5.30;;;15.10;99.90;;;15.68;94.50;100342.84;5094349;28;20179;-77
2021/08/26 06:29:37;;;;;;;22.45;5.85;;;15.10;99.90;;;15.75;94.78;100350.28;5100107;28;20192;-77
2021/08/26 06:32:06;;;;;;;20.98;5.80;;;15.30;99.90;;;15.86;94.36;100346.91;5105758;28;20192;-76
2021/08/26 06:34:35;;;;;;;20.60;4.75;;;15.40;99.90;;;15.94;94.20;100355.22;5090001;28;20172;-74
2021/08/26 06:37:02;;;;;;;18.90;5.13;;;15.50;99.90;;;16.00;93.88;100349.50;5102197;28;20180;-72
2021/08/26 06:39:29;;;;;;;21.52;4.88;;;15.60;99.90;;;16.05;94.00;100360.63;5080915;28;20192;-74
2021/08/26 06:41:57;;;;;;;20.30;4.57;;;15.60;99.90;;;16.06;93.46;100364.94;5103366;28;20182;-75
2021/08/26 06:44:24;;;;;;;18.40;4.53;;;15.60;99.90;;;16.04;92.99;100362.41;5082452;28;20199;-74
2021/08/26 06:46:51;;;;;;;15.30;4.30;;;15.60;99.90;;;16.03;93.37;100351.94;5106632;28;20191;-75
2021/08/26 06:49:17;;;;;;;15.90;4.60;;;15.60;99.90;;;16.01;93.10;100357.34;5104622;28;20195;-76
2021/08/26 06:51:45;;;;;;;22.50;4.38;;;15.60;99.90;;;16.00;92.81;100357.44;5087813;28;20172;-76
2021/08/26 06:54:12;;;;;;;15.57;4.40;;;15.60;99.90;;;15.98;92.82;100364.59;5103222;28;20171;-76
2021/08/26 06:56:39;;;;;;;17.80;4.35;;;15.50;99.90;;;15.96;92.67;100359.44;5108083;28;20175;-76
2021/08/26 06:59:06;;;;;;;18.40;4.57;;;15.50;99.90;;;16.00;92.79;100360.94;5094147;28;20196;-74
2021/08/26 07:01:33;;;;;;;12.73;4.15;;;15.50;99.90;;;16.08;92.85;100368.34;5083879;28;20200;-73
2021/08/26 07:04:00;;;;;;;13.80;4.50;;;15.60;99.90;;;16.12;92.25;100367.19;5064093;28;20214;-74
2021/08/26 07:06:28;;;;;;;16.83;4.53;;;15.60;99.90;;;16.13;92.06;100366.25;5083199;28;20192;-72
2021/08/26 07:08:58;;;;;;;12.75;3.78;;;15.60;99.90;;;16.17;91.97;100373.03;5077092;28;20715;-75
2021/08/26 07:11:24;;;;;;;21.55;4.63;;;15.60;99.90;;;16.22;91.78;100361.22;5075676;28;20597;-75
2021/08/26 07:13:51;;;;;;;20.38;4.25;;;15.70;99.90;;;16.27;91.47;100363.53;5071988;28;20283;-76
2021/08/26 07:16:18;;;;;;;17.45;4.35;;;15.70;99.90;;;16.27;91.58;100359.13;5080779;28;20188;-74
2021/08/26 07:18:45;;;;;;;16.30;4.63;;;15.80;99.90;;;16.28;91.29;100359.94;5082429;28;20622;-73
2021/08/26 07:21:12;;;;;;;24.13;5.88;;;15.80;99.90;;;16.31;91.11;100363.22;5072044;28;20554;-74
2021/08/26 07:23:38;;;;;;;17.77;4.40;;;15.80;99.90;;;16.37;90.66;100359.34;5082575;28;20194;-74
2021/08/26 07:26:07;;;;;;;16.52;3.70;;;15.90;99.90;;;16.44;90.73;100365.03;5084914;28;20195;-74
2021/08/26 07:28:34;;;;;;;14.90;3.90;;;15.90;99.90;;;16.49;89.87;100362.97;5082533;28;20657;-73
2021/08/26 07:31:00;;;;;;;14.52;3.72;;;16.00;99.90;;;16.54;89.87;100361.72;5069977;28;20195;-72
2021/08/26 07:33:27;;;;;;;13.90;3.65;;;16.10;99.90;;;16.59;89.25;100364.91;5061356;28;20198;-74
2021/08/26 07:35:55;;;;;;;14.50;3.67;;;16.10;99.90;;;16.62;88.93;100364.69;5060960;28;20199;-74
2021/08/26 07:38:23;;;;;;;17.23;3.80;;;16.10;99.90;;;16.71;88.65;100363.22;5085269;28;20274;-74
2021/08/26 07:40:49;;;;;;;14.48;3.40;;;16.20;99.90;;;16.78;87.85;100369.78;5059581;28;20224;-75
2021/08/26 07:43:17;;;;;;;17.50;3.75;;;16.30;99.90;;;16.86;87.50;100362.97;5057053;28;20207;-73
2021/08/26 07:45:45;;;;;;;11.40;3.80;;;16.30;99.90;;;16.98;87.12;100362.13;5078011;28;20214;-74
2021/08/26 07:48:12;;;;;;;16.63;4.05;;;16.50;99.90;;;17.10;86.87;100368.38;5058512;28;20192;-74
2021/08/26 07:50:38;;;;;;;14.93;3.47;;;16.60;99.90;;;17.16;85.89;100371.44;5067169;28;20687;-74
2021/08/26 07:53:05;;;;;;;12.73;3.08;;;16.60;99.90;;;17.13;85.53;100374.28;5079216;28;20188;-75
2021/08/26 07:55:32;;;;;;;12.50;3.38;;;16.60;99.90;;;17.10;84.95;100381.59;5073871;28;20555;-72
2021/08/26 07:57:59;;;;;;;12.65;3.00;;;16.60;99.90;;;17.10;84.99;100371.88;5087902;28;20194;-73
2021/08/26 08:00:30;;;;;;;10.40;2.63;;;16.60;99.90;;;17.20;83.94;100367.63;5073252;28;20228;-72
2021/08/26 08:02:57;;;;;;;9.10;2.55;;;16.70;99.90;;;17.34;83.43;100364.00;5056484;28;20287;-73
2021/08/26 08:05:24;;;;;;;13.07;3.15;;;16.90;99.90;;;17.47;83.10;100352.47;5064813;28;20215;-74
2021/08/26 08:07:51;;;;;;;13.00;2.75;;;17.00;99.90;;;17.50;82.50;100352.25;5059316;28;20570;-74
2021/08/26 08:10:18;;;;;;;12.52;2.90;;;17.10;99.90;;;17.43;82.24;100350.97;5089677;28;20214;-74
2021/08/26 08:12:44;;;;;;;10.38;2.70;;;17.00;99.90;;;17.35;81.99;100350.66;5070528;28;20206;-73
2021/08/26 08:15:12;;;;;;;12.05;2.70;;;16.90;99.90;;;17.27;81.56;100353.03;5062963;28;20191;-74
2021/08/26 08:17:41;;;;;;;11.05;2.50;;;16.70;99.90;;;17.16;81.24;100357.38;5080295;28;20194;-72
2021/08/26 08:20:10;;;;;;;9.10;2.30;;;16.50;99.90;;;17.04;80.80;100356.44;5059007;28;20588;-73
2021/08/26 08:22:38;;;;;;;11.27;2.70;;;16.40;99.90;;;17.00;81.29;100348.81;5075411;28;20192;-73
2021/08/26 08:25:07;;;;;;;12.00;2.72;;;16.40;99.90;;;17.05;81.10;100347.53;5080767;28;20219;-74
2021/08/26 08:27:34;;;;;;;12.93;2.83;;;16.40;99.90;;;17.18;81.04;100351.00;5057171;28;20279;-74
2021/08/26 08:30:01;;;;;;;8.13;2.28;;;16.60;99.90;;;17.38;80.86;100346.97;5064081;28;20252;-72
2021/08/26 08:32:28;;;;;;;8.50;2.17;;;16.80;99.90;;;17.55;80.32;100346.63;5080148;28;20195;-74
2021/08/26 08:34:56;;;;;;;7.15;2.10;;;17.00;99.90;;;17.63;79.59;100344.28;5072563;28;20187;-74
2021/08/26 08:37:23;;;;;;;9.82;2.08;;;17.10;99.90;;;17.67;78.95;100351.03;5073442;28;20192;-74
2021/08/26 08:39:50;;;;;;;6.97;1.85;;;17.20;99.90;;;17.64;78.40;100343.31;5076347;28;20255;-74
2021/08/26 08:42:20;;;;;;;7.53;1.75;;;17.20;99.90;;;17.61;78.16;100350.63;5063289;28;20215;-74
2021/08/26 08:44:47;;;;;;;8.93;2.22;;;17.20;99.90;;;17.52;77.76;100363.56;5076035;28;20215;-72
2021/08/26 08:47:14;;;;;;;13.63;3.35;;;17.00;99.90;;;17.13;79.17;100371.66;5059927;28;20188;-75
2021/08/26 08:49:43;;;;;;;12.20;2.83;;;16.30;99.90;;;16.54;83.38;100369.66;5073890;28;20223;-75
2021/08/26 08:52:11;;;;;;;12.50;2.90;;;15.80;99.90;;;16.10;86.75;100379.66;5083969;28;20192;-76
2021/08/26 08:54:38;;;;;;;10.45;2.38;;;15.40;99.90;;;15.73;88.67;100388.25;5066125;28;20191;-75
2021/08/26 08:57:06;;;;;;;10.85;2.40;;;15.00;99.90;;;15.38;90.81;100376.41;5068348;28;20211;-75
2021/08/26 08:59:35;;;;;;;6.47;1.75;;;14.70;99.90;;;15.16;92.40;100373.41;5067398;28;20265;-75
2021/08/26 09:02:02;;;;;;;10.88;1.83;;;14.50;99.90;;;15.01;93.66;100365.53;5077734;28;20211;-74
2021/08/26 09:04:29;;;;;;;4.95;1.50;;;14.30;99.90;;;14.87;94.05;100365.50;5077678;28;20589;-73
2021/08/26 09:06:56;;;;;;;5.78;1.80;;;14.20;99.90;;;14.77;94.75;100368.78;5054935;28;20203;-76
2021/08/26 09:09:24;;;;;;;5.78;1.40;;;14.10;99.90;;;14.74;95.50;100364.56;5065978;28;20696;-74
2021/08/26 09:11:53;;;;;;;8.15;1.60;;;14.10;99.90;;;14.77;95.87;100364.38;5080283;28;20187;-74
2021/08/26 09:14:24;;;;;;;5.78;1.60;;;14.10;99.90;;;14.82;96.34;100367.56;5075334;28;20269;-75
2021/08/26 09:16:54;;;;;;;7.22;1.90;;;14.20;99.90;;;14.99;96.39;100372.69;5060620;28;20199;-75
2021/08/26 09:19:29;;;;;;;5.32;1.42;;;14.40;99.90;;;15.15;96.54;100364.69;5079712;28;20219;-75
2021/08/26 09:21:56;;;;;;;6.55;1.88;;;14.50;99.90;;;15.26;96.63;100367.47;5063317;28;20201;-75
2021/08/26 09:24:41;;;;;;;7.43;2.15;;;14.70;99.90;;;15.32;96.68;100367.09;5082230;28;20218;-74
2021/08/26 09:27:08;;;;;;;8.52;2.20;;;14.70;99.90;;;15.41;96.92;100373.59;5066559;28;20194;-74
2021/08/26 09:29:59;;;;;;;10.70;2.28;;;14.70;99.90;;;15.46;96.60;100363.63;5070784;28;20200;-75
2021/08/26 09:32:35;;;;;;;10.88;2.50;;;14.80;99.90;;;15.54;97.08;100371.91;5067518;28;20195;-72
2021/08/26 09:35:18;;;;;;;9.07;2.60;;;14.80;99.90;;;15.64;97.07;100365.13;5067935;28;20198;-73
2021/08/26 09:37:50;;;;;;;10.35;2.20;;;14.90;99.90;;;15.75;97.55;100350.28;5080684;28;20198;-74
2021/08/26 09:40:21;;;;;;;10.85;2.63;;;15.00;99.90;;;15.83;97.48;100363.81;5072579;28;20219;-73
2021/08/26 09:42:57;;;;;;;7.65;1.95;;;15.10;99.90;;;15.85;97.13;100351.38;5077201;28;20195;-73
2021/08/26 09:45:27;;;;;;;4.35;1.40;;;15.20;99.90;;;15.95;97.19;100364.81;5068421;28;20215;-72
2021/08/26 09:48:07;;;;;;;5.57;1.35;;;15.30;99.90;;;16.03;95.82;100370.44;5081203;28;20195;-71
2021/08/26 09:50:49;;;;;;;7.38;1.80;;;15.40;99.90;;;16.07;94.29;100356.94;5074702;28;20219;-72
2021/08/26 09:53:19;;;;;;;4.47;1.20;;;15.50;99.90;;;16.20;93.19;100363.09;5076462;28;20199;-73
2021/08/26 09:56:02;;;;;;;5.07;1.20;;;15.70;99.90;;;16.33;92.02;100350.78;5076258;28;20202;-72
2021/08/26 09:58:32;;;;;;;4.75;1.30;;;15.90;99.90;;;16.31;90.78;100354.44;5072792;28;20195;-71
2021/08/26 10:01:13;;;;;;;2.63;1.20;;;15.90;99.90;;;16.18;88.13;100354.44;5060547;28;20210;-72
2021/08/26 10:03:41;;;;;;;8.02;1.92;;;15.90;99.90;;;16.11;87.59;100357.56;5062505;28;20604;-73
2021/08/26 10:06:08;;;;;;;5.85;1.30;;;15.80;99.90;;;16.08;87.04;100356.00;5081510;28;20215;-73
2021/08/26 10:08:35;;;;;;;7.53;1.65;;;15.80;99.90;;;16.08;86.36;100368.34;5068228;28;20191;-73
2021/08/26 10:11:07;;;;;;;6.40;1.65;;;15.70;99.90;;;16.12;85.93;100364.56;5071249;28;20188;-73
2021/08/26 10:13:36;;;;;;;5.57;1.75;;;15.80;99.90;;;16.19;85.94;100377.22;5070643;28;20209;-73
2021/08/26 10:16:03;;;;;;;3.58;0.95;;;15.80;99.90;;;16.26;85.49;100375.03;5072106;28;20183;-74
2021/08/26 10:18:31;;;;;;;6.57;1.67;;;15.90;99.90;;;16.26;85.09;100372.38;5083027;28;20202;-73